Time;durP1;ratioP1;P1;durP2;ratioP2;P2;SDS_P1;SDS_P2;PMS_P1;PMS_P2;Temp;Humidity;BMP_temperature;BMP_pressure;BME280_temperature;BME280_humidity;BME280_pressure;Samples;Min_cycle;Max_cycle;Signal;HPM_P1;HPM_P2
2022/12/23 00:01:01;;;;;;;2.07;0.87;;;;;;;9.06;100.00;97045.69;5053458;28;20251;-72
2022/12/23 00:03:28;;;;;;;3.27;1.03;;;;;;;9.00;100.00;97038.66;5053420;28;20209;-72
2022/12/23 00:05:55;;;;;;;2.83;1.40;;;;;;;8.97;100.00;97044.44;5052981;28;20204;-72
2022/12/23 00:08:27;;;;;;;1.83;0.90;;;;;;;9.03;100.00;97048.78;5053326;28;20229;-72
2022/12/23 00:10:56;;;;;;;4.67;1.23;;;;;;;9.01;100.00;97042.94;5052646;28;20233;-72
2022/12/23 00:16:09;;;;;;;2.63;1.13;;;;;;;8.94;100.00;97044.88;5053136;28;20176;-72
2022/12/23 00:18:36;;;;;;;3.03;1.20;;;;;;;9.01;100.00;97049.00;5052552;28;20654;-72
2022/12/23 00:21:06;;;;;;;2.30;1.00;;;;;;;9.07;100.00;97057.88;5073591;28;20231;-72
2022/12/23 00:23:33;;;;;;;2.47;0.90;;;;;;;9.13;100.00;97049.00;5066445;28;20229;-72
2022/12/23 00:26:00;;;;;;;4.33;1.00;;;;;;;9.09;100.00;97043.34;5057369;28;20211;-72
2022/12/23 00:28:28;;;;;;;2.10;0.90;;;;;;;9.13;100.00;97049.00;5056383;28;20691;-72
2022/12/23 00:30:58;;;;;;;2.93;0.90;;;;;;;9.05;100.00;97042.22;5076159;28;20224;-72
2022/12/23 00:33:28;;;;;;;3.70;0.90;;;;;;;9.11;100.00;97037.81;5059600;28;20219;-72
2022/12/23 00:35:55;;;;;;;2.03;0.80;;;;;;;9.09;100.00;97029.31;5057139;28;20209;-72
2022/12/23 00:43:46;;;;;;;3.30;0.80;;;;;;;9.15;100.00;97046.94;5056164;28;20334;-72
2022/12/23 00:46:13;;;;;;;3.50;0.93;;;;;;;9.08;100.00;97054.19;5057002;28;20212;-72
2022/12/23 00:51:38;;;;;;;1.60;0.70;;;;;;;9.28;100.00;97046.66;5014688;28;20222;-72
2022/12/23 00:54:05;;;;;;;2.23;0.80;;;;;;;9.32;100.00;97050.47;5034161;28;20631;-72
2022/12/23 00:56:31;;;;;;;2.60;1.00;;;;;;;9.27;100.00;97050.34;5043980;28;20205;-72
2022/12/23 00:58:58;;;;;;;1.10;0.90;;;;;;;9.33;100.00;97052.84;5056155;28;20197;-72
2022/12/23 01:06:57;;;;;;;0.90;0.80;;;;;;;9.44;100.00;97072.44;5074627;28;20172;-72
2022/12/23 01:09:23;;;;;;;2.33;0.87;;;;;;;9.40;100.00;97073.94;5056498;28;20256;-72
2022/12/23 01:11:50;;;;;;;3.07;0.90;;;;;;;9.40;100.00;97084.56;5055579;28;20616;-72
2022/12/23 01:14:17;;;;;;;0.97;0.70;;;;;;;9.47;100.00;97071.97;5055898;28;20554;-72
2022/12/23 01:16:43;;;;;;;1.40;0.80;;;;;;;9.50;100.00;97090.88;5056080;28;20259;-72
2022/12/23 01:19:10;;;;;;;2.03;0.80;;;;;;;9.49;100.00;97091.09;5055517;28;20566;-72
2022/12/23 01:21:36;;;;;;;0.60;0.60;;;;;;;9.56;100.00;97089.94;5055454;28;20255;-72
2022/12/23 01:24:03;;;;;;;3.00;0.60;;;;;;;9.49;100.00;97091.09;5056335;28;20213;-72
2022/12/23 01:26:30;;;;;;;1.20;0.50;;;;;;;9.50;100.00;97084.78;5055505;28;20338;-72
2022/12/23 01:28:58;;;;;;;0.80;0.53;;;;;;;9.48;100.00;97092.16;5055684;28;20225;-72
2022/12/23 01:31:26;;;;;;;0.63;0.40;;;;;;;9.46;100.00;97099.56;5055230;28;20703;-72
2022/12/23 01:33:53;;;;;;;2.63;0.60;;;;;;;9.54;100.00;97097.31;5063002;28;20211;-72
2022/12/23 01:36:21;;;;;;;0.73;0.40;;;;;;;9.56;100.00;97097.88;5074695;28;20664;-72
2022/12/23 01:38:47;;;;;;;1.83;0.60;;;;;;;9.52;100.00;97109.22;5055974;28;20200;-72
2022/12/23 01:44:23;;;;;;;0.67;0.43;;;;;;;9.71;100.00;97106.16;5055303;28;20203;-72
2022/12/23 01:46:50;;;;;;;1.63;0.60;;;;;;;9.70;100.00;97111.72;5054845;28;20224;-72
2022/12/23 01:49:16;;;;;;;0.77;0.43;;;;;;;9.76;100.00;97116.88;5055643;28;20582;-72
2022/12/23 01:51:43;;;;;;;2.13;0.53;;;;;;;9.86;100.00;97105.66;5054807;28;20236;-72
2022/12/23 01:54:09;;;;;;;1.10;0.60;;;;;;;9.98;100.00;97109.88;5055273;28;20209;-72
2022/12/23 01:56:40;;;;;;;1.13;0.40;;;;;;;9.96;100.00;97111.16;5054313;28;20220;-72
2022/12/23 02:03:40;;;;;;;1.27;0.60;;;;;;;9.96;100.00;97108.50;5055582;28;20288;-72
2022/12/23 02:04:46;;;;;;;1.90;0.40;;;;;;;10.17;100.00;97119.28;5055200;28;20208;-72
2022/12/23 02:09:58;;;;;;;0.43;0.40;;;;;;;10.16;100.00;97128.28;5055463;28;20316;-72
2022/12/23 02:12:27;;;;;;;0.27;0.27;;;;;;;10.19;100.00;97141.06;5061988;28;20220;-72
2022/12/23 02:18:15;;;;;;;1.00;0.33;;;;;;;10.25;100.00;97140.13;5054613;28;20734;-72
2022/12/23 02:21:00;;;;;;;1.20;0.40;;;;;;;10.26;100.00;97143.56;5054651;28;20209;-72
2022/12/23 02:23:45;;;;;;;0.40;0.40;;;;;;;10.21;100.00;97151.47;5055264;28;20220;-72
2022/12/23 02:26:33;;;;;;;0.83;0.40;;;;;;;10.32;100.00;97156.72;5054614;28;20566;-72
2022/12/23 02:29:12;;;;;;;0.40;0.40;;;;;;;10.21;100.00;97170.06;5055124;28;20217;-72
2022/12/23 02:31:44;;;;;;;0.50;0.30;;;;;;;10.18;100.00;97174.00;5054437;28;20233;-72
2022/12/23 02:34:22;;;;;;;1.47;0.30;;;;;;;10.24;100.00;97166.94;5055020;28;20194;-72
2022/12/23 02:37:03;;;;;;;1.20;0.30;;;;;;;10.28;100.00;97179.47;5074196;28;20200;-72
2022/12/23 02:39:45;;;;;;;0.40;0.37;;;;;;;10.41;100.00;97173.09;5073312;28;20646;-72
2022/12/23 02:42:17;;;;;;;0.67;0.40;;;;;;;10.55;100.00;97177.06;5055284;28;20228;-72
2022/12/23 02:44:50;;;;;;;0.77;0.30;;;;;;;10.55;100.00;97171.75;5053468;28;20206;-72
2022/12/23 02:47:23;;;;;;;0.40;0.40;;;;;;;10.47;100.00;97183.56;5057798;28;20209;-72
2022/12/23 02:49:56;;;;;;;1.27;0.40;;;;;;;10.50;100.00;97190.25;5071827;28;20215;-72
2022/12/23 02:52:29;;;;;;;2.50;0.40;;;;;;;10.52;100.00;97196.13;5054226;28;20233;-72
2022/12/23 02:55:24;;;;;;;0.80;0.50;;;;;;;10.49;100.00;97200.06;5053461;28;20185;-72
2022/12/23 02:57:54;;;;;;;1.17;0.40;;;;;;;10.45;100.00;97201.59;5053694;28;20210;-72
2022/12/23 03:00:22;;;;;;;0.40;0.37;;;;;;;10.43;100.00;97208.19;5053960;28;20197;-72
2022/12/23 03:02:48;;;;;;;0.20;0.20;;;;;;;10.51;100.00;97213.13;5054385;28;20229;-72
2022/12/23 03:05:40;;;;;;;0.30;0.30;;;;;;;10.45;100.00;97214.88;5053476;28;20657;-72
2022/12/23 03:08:14;;;;;;;0.53;0.30;;;;;;;10.46;100.00;97213.03;5054338;28;20216;-72
2022/12/23 03:10:56;;;;;;;0.20;0.20;;;;;;;10.48;100.00;97216.25;5053956;28;20197;-72
2022/12/23 03:13:43;;;;;;;0.27;0.27;;;;;;;10.55;100.00;97220.38;5067400;28;20215;-72
2022/12/23 03:16:24;;;;;;;0.57;0.30;;;;;;;10.45;100.00;97222.06;5053684;28;20569;-72
2022/12/23 03:19:09;;;;;;;0.30;0.30;;;;;;;10.48;100.00;97229.53;5053535;28;20205;-72
2022/12/23 03:22:08;;;;;;;0.30;0.30;;;;;;;10.44;100.00;97228.41;5053132;28;20241;-72
2022/12/23 03:24:41;;;;;;;1.10;0.30;;;;;;;10.44;100.00;97237.19;5051485;28;20213;-72
2022/12/23 03:27:13;;;;;;;0.30;0.30;;;;;;;10.38;100.00;97240.81;5054049;28;20209;-72
2022/12/23 03:29:57;;;;;;;0.20;0.20;;;;;;;10.30;100.00;97250.97;5052989;28;20213;-73
2022/12/23 03:32:28;;;;;;;0.30;0.30;;;;;;;10.32;100.00;97251.56;5053902;28;20225;-72
2022/12/23 03:34:58;;;;;;;0.83;0.40;;;;;;;10.38;100.00;97248.78;5053458;28;20201;-73
2022/12/23 03:37:27;;;;;;;0.37;0.30;;;;;;;10.35;100.00;97243.09;5053580;28;20200;-73
2022/12/23 03:40:04;;;;;;;0.30;0.30;;;;;;;10.37;100.00;97244.47;5053135;28;20197;-72
2022/12/23 03:42:42;;;;;;;1.80;0.40;;;;;;;10.24;100.00;97236.00;5053711;28;20232;-72
2022/12/23 03:45:21;;;;;;;1.30;0.40;;;;;;;10.26;100.00;97249.84;5053074;28;20201;-72
2022/12/23 03:47:53;;;;;;;0.30;0.30;;;;;;;10.28;100.00;97247.75;5073253;28;20211;-72
2022/12/23 03:50:22;;;;;;;0.30;0.30;;;;;;;10.19;100.00;97257.94;5060573;28;20198;-73
2022/12/23 03:53:01;;;;;;;0.30;0.30;;;;;;;10.45;100.00;97256.59;5053511;28;20346;-72
2022/12/23 03:55:40;;;;;;;1.13;0.30;;;;;;;10.62;100.00;97247.63;5052234;28;20224;-72
2022/12/23 03:58:12;;;;;;;0.20;0.20;;;;;;;10.81;100.00;97256.19;5052922;28;20556;-72
2022/12/23 04:00:47;;;;;;;0.23;0.20;;;;;;;10.75;100.00;97249.16;5053377;28;20211;-72
2022/12/23 04:03:28;;;;;;;1.40;0.30;;;;;;;10.69;100.00;97253.56;5051757;28;20644;-73
2022/12/23 04:05:59;;;;;;;0.20;0.20;;;;;;;10.68;100.00;97254.63;5053479;28;20193;-72
2022/12/23 04:08:39;;;;;;;0.47;0.30;;;;;;;10.62;100.00;97254.78;5052645;28;20213;-72
2022/12/23 04:11:05;;;;;;;0.30;0.30;;;;;;;10.61;100.00;97254.00;5061101;28;20729;-72
2022/12/23 04:13:32;;;;;;;0.30;0.30;;;;;;;10.65;100.00;97264.94;5067712;28;20201;-73
2022/12/23 04:16:00;;;;;;;0.50;0.30;;;;;;;10.55;100.00;97265.53;5053938;28;20205;-72
2022/12/23 04:18:27;;;;;;;0.30;0.30;;;;;;;10.75;100.00;97259.81;5052647;28;20209;-72
2022/12/23 04:20:54;;;;;;;0.30;0.30;;;;;;;10.51;100.00;97259.09;5053164;28;20229;-72
2022/12/23 04:23:20;;;;;;;0.23;0.23;;;;;;;10.47;100.00;97259.81;5052726;28;20206;-72
2022/12/23 04:25:46;;;;;;;0.40;0.30;;;;;;;10.56;100.00;97271.69;5053267;28;20209;-72
2022/12/23 04:28:13;;;;;;;0.40;0.40;;;;;;;10.52;100.00;97281.16;5052511;28;20205;-73
2022/12/23 04:30:39;;;;;;;0.93;0.30;;;;;;;10.52;100.00;97275.84;5052883;28;20668;-72
2022/12/23 04:33:05;;;;;;;0.97;0.40;;;;;;;10.47;100.00;97273.09;5052560;28;20205;-72
2022/12/23 04:35:32;;;;;;;0.30;0.30;;;;;;;10.61;100.00;97279.75;5066892;28;20213;-72
2022/12/23 04:37:58;;;;;;;1.53;0.30;;;;;;;10.59;100.00;97266.69;5064401;28;20209;-72
2022/12/23 04:40:24;;;;;;;0.30;0.30;;;;;;;10.61;100.00;97269.13;5052705;28;20206;-73
2022/12/23 04:42:51;;;;;;;0.40;0.40;;;;;;;10.73;100.00;97272.53;5051987;28;20225;-72
2022/12/23 04:45:17;;;;;;;0.30;0.30;;;;;;;10.78;100.00;97285.91;5052516;28;20668;-72
2022/12/23 04:47:43;;;;;;;0.40;0.40;;;;;;;10.86;100.00;97288.19;5051378;28;20653;-72
2022/12/23 04:50:14;;;;;;;0.43;0.43;;;;;;;10.76;100.00;97288.00;5052882;28;20225;-72
2022/12/23 04:52:41;;;;;;;0.83;0.47;;;;;;;10.88;100.00;97286.09;5052494;28;20225;-72
2022/12/23 04:55:08;;;;;;;0.30;0.30;;;;;;;10.95;100.00;97286.75;5051803;28;20209;-72
2022/12/23 04:57:34;;;;;;;0.40;0.40;;;;;;;10.98;100.00;97296.91;5052213;28;20202;-72
2022/12/23 05:00:00;;;;;;;0.50;0.50;;;;;;;11.03;100.00;97300.47;5069240;28;20567;-72
2022/12/23 05:02:27;;;;;;;0.97;0.50;;;;;;;10.86;100.00;97312.91;5058311;28;20229;-72
2022/12/23 05:04:53;;;;;;;0.30;0.30;;;;;;;10.96;100.00;97314.97;5052715;28;20276;-72
2022/12/23 05:07:20;;;;;;;0.97;0.30;;;;;;;10.93;100.00;97318.09;5052461;28;20214;-72
2022/12/23 05:09:46;;;;;;;0.40;0.40;;;;;;;10.83;100.00;97316.06;5055720;28;20233;-72
2022/12/23 05:12:12;;;;;;;0.60;0.60;;;;;;;10.77;100.00;97308.25;5056401;28;20225;-72
2022/12/23 05:14:39;;;;;;;0.40;0.40;;;;;;;10.76;100.00;97299.44;5056400;28;20217;-72
2022/12/23 05:17:05;;;;;;;1.00;0.50;;;;;;;10.65;100.00;97318.09;5055607;28;20212;-72
2022/12/23 05:19:31;;;;;;;0.63;0.63;;;;;;;10.82;100.00;97319.75;5055882;28;20199;-72
2022/12/23 05:21:58;;;;;;;0.30;0.30;;;;;;;10.94;100.00;97319.69;5056268;28;20315;-72
2022/12/23 05:24:24;;;;;;;0.43;0.43;;;;;;;10.79;100.00;97325.56;5075708;28;20668;-72
2022/12/23 05:26:50;;;;;;;0.37;0.37;;;;;;;10.75;100.00;97332.41;5059231;28;20216;-72
2022/12/23 05:29:17;;;;;;;0.40;0.40;;;;;;;10.95;100.00;97331.97;5055961;28;20232;-73
2022/12/23 05:31:43;;;;;;;0.30;0.30;;;;;;;10.84;100.00;97338.13;5055192;28;20239;-72
2022/12/23 05:34:09;;;;;;;0.50;0.50;;;;;;;10.79;100.00;97328.22;5055174;28;20207;-72
2022/12/23 05:36:36;;;;;;;0.50;0.50;;;;;;;10.89;100.00;97328.41;5056150;28;20213;-72
2022/12/23 05:39:02;;;;;;;0.33;0.33;;;;;;;10.78;100.00;97318.59;5055015;28;20205;-72
2022/12/23 05:41:28;;;;;;;0.80;0.47;;;;;;;10.76;100.00;97310.06;5055455;28;20586;-72
2022/12/23 05:43:55;;;;;;;0.97;0.50;;;;;;;10.87;100.00;97337.66;5054937;28;20211;-72
2022/12/23 05:46:21;;;;;;;0.50;0.50;;;;;;;10.91;100.00;97330.84;5053256;28;20205;-72
2022/12/23 05:48:47;;;;;;;0.50;0.50;;;;;;;10.85;100.00;97337.06;5055144;28;20582;-72
2022/12/23 05:51:14;;;;;;;0.60;0.50;;;;;;;10.86;100.00;97341.38;5054776;28;20577;-73
2022/12/23 05:53:40;;;;;;;0.97;0.50;;;;;;;10.81;100.00;97342.06;5055225;28;20684;-72
2022/12/23 05:56:07;;;;;;;0.73;0.60;;;;;;;10.84;100.00;97348.75;5069859;28;20200;-72
2022/12/23 05:58:33;;;;;;;0.50;0.50;;;;;;;10.79;100.00;97346.00;5072725;28;20660;-72
2022/12/23 06:01:02;;;;;;;0.60;0.60;;;;;;;10.75;100.00;97345.69;5063951;28;20246;-72
2022/12/23 06:03:29;;;;;;;0.50;0.50;;;;;;;10.78;100.00;97349.72;5070552;28;20216;-72
2022/12/23 06:05:55;;;;;;;0.60;0.60;;;;;;;10.70;100.00;97358.06;5054769;28;20216;-72
2022/12/23 06:08:21;;;;;;;0.53;0.53;;;;;;;10.63;100.00;97344.91;5055079;28;20212;-72
2022/12/23 06:10:48;;;;;;;1.73;0.70;;;;;;;10.72;100.00;97351.47;5053791;28;20312;-72
2022/12/23 06:13:14;;;;;;;0.60;0.50;;;;;;;10.80;100.00;97344.97;5055198;28;20209;-72
2022/12/23 06:15:41;;;;;;;1.50;0.60;;;;;;;10.72;100.00;97348.81;5057714;28;20215;-72
2022/12/23 06:18:07;;;;;;;1.07;0.60;;;;;;;10.71;100.00;97351.69;5074328;28;20664;-72
2022/12/23 06:20:33;;;;;;;0.70;0.40;;;;;;;10.64;100.00;97353.69;5067644;28;20204;-72
2022/12/23 06:23:00;;;;;;;1.50;0.60;;;;;;;10.67;100.00;97346.06;5063788;28;20576;-72
2022/12/23 06:25:26;;;;;;;0.77;0.63;;;;;;;10.59;100.00;97341.09;5070046;28;20223;-72
2022/12/23 06:27:52;;;;;;;0.70;0.70;;;;;;;10.63;100.00;97349.41;5054371;28;20205;-72
2022/12/23 06:30:19;;;;;;;1.03;0.70;;;;;;;10.63;100.00;97349.41;5062960;28;20216;-72
2022/12/23 06:32:45;;;;;;;0.93;0.70;;;;;;;10.58;100.00;97347.47;5074037;28;20230;-72
2022/12/23 06:35:12;;;;;;;1.87;0.93;;;;;;;10.58;100.00;97349.31;5057593;28;20205;-72
2022/12/23 06:37:38;;;;;;;0.80;0.80;;;;;;;10.49;100.00;97351.53;5057792;28;20543;-72
2022/12/23 06:40:05;;;;;;;0.80;0.80;;;;;;;10.44;100.00;97361.25;5065540;28;20568;-72
2022/12/23 06:42:32;;;;;;;0.80;0.80;;;;;;;10.49;100.00;97359.50;5068139;28;20231;-72
2022/12/23 06:44:58;;;;;;;1.00;0.90;;;;;;;10.49;100.00;97356.03;5054099;28;20202;-72
2022/12/23 06:47:24;;;;;;;0.77;0.77;;;;;;;10.44;100.00;97359.41;5054282;28;20205;-72
2022/12/23 06:49:51;;;;;;;1.87;0.90;;;;;;;10.35;100.00;97368.78;5053898;28;20221;-72
2022/12/23 06:52:17;;;;;;;1.63;0.90;;;;;;;10.33;100.00;97365.53;5054073;28;20226;-72
2022/12/23 06:54:43;;;;;;;1.80;1.10;;;;;;;10.33;100.00;97362.88;5053851;28;20209;-72
2022/12/23 06:57:10;;;;;;;1.63;1.47;;;;;;;10.31;100.00;97362.31;5054324;28;20205;-72
2022/12/23 06:59:36;;;;;;;1.73;1.20;;;;;;;10.28;100.00;97362.00;5053667;28;20204;-72
2022/12/23 07:02:03;;;;;;;1.07;1.00;;;;;;;10.28;100.00;97365.44;5053459;28;20221;-72
2022/12/23 07:04:29;;;;;;;3.10;1.40;;;;;;;10.25;100.00;97370.41;5054279;28;20228;-72
2022/12/23 07:06:56;;;;;;;2.13;1.30;;;;;;;10.20;100.00;97378.28;5052902;28;20201;-72
2022/12/23 07:09:23;;;;;;;2.17;1.30;;;;;;;10.15;100.00;97380.81;5069612;28;20244;-72
2022/12/23 07:11:49;;;;;;;3.00;1.40;;;;;;;10.18;100.00;97375.84;5057077;28;20638;-73
2022/12/23 07:14:16;;;;;;;2.73;1.80;;;;;;;10.19;100.00;97385.44;5071797;28;20205;-72
2022/12/23 07:16:42;;;;;;;3.57;1.70;;;;;;;10.16;100.00;97377.13;5057734;28;20220;-72
2022/12/23 07:19:09;;;;;;;1.60;1.47;;;;;;;10.11;100.00;97383.16;5053941;28;20204;-72
2022/12/23 07:21:35;;;;;;;3.43;1.83;;;;;;;10.10;100.00;97378.06;5066145;28;20239;-72
2022/12/23 07:24:01;;;;;;;4.10;2.13;;;;;;;10.13;100.00;97380.22;5054202;28;20205;-72
2022/12/23 07:26:28;;;;;;;4.83;2.20;;;;;;;10.14;100.00;97376.56;5053165;28;20205;-72
2022/12/23 07:28:54;;;;;;;2.00;1.80;;;;;;;10.15;100.00;97375.50;5053275;28;20668;-72
2022/12/23 07:31:21;;;;;;;2.27;1.83;;;;;;;10.11;100.00;97385.81;5052394;28;20229;-72
2022/12/23 07:33:47;;;;;;;2.43;1.90;;;;;;;10.12;100.00;97382.09;5052853;28;20228;-72
2022/12/23 07:36:14;;;;;;;4.47;2.20;;;;;;;10.14;100.00;97389.84;5070212;28;20297;-72
2022/12/23 07:38:40;;;;;;;3.23;2.13;;;;;;;10.17;100.00;97386.69;5062870;28;20212;-72
2022/12/23 07:41:06;;;;;;;2.33;2.13;;;;;;;10.15;100.00;97396.75;5072831;28;20230;-72
2022/12/23 07:43:33;;;;;;;2.30;2.20;;;;;;;10.18;100.00;97391.00;5065227;28;20219;-72
2022/12/23 07:46:07;;;;;;;5.57;2.50;;;;;;;10.14;100.00;97389.84;5073016;28;20212;-72
2022/12/23 07:48:34;;;;;;;2.53;2.07;;;;;;;10.15;100.00;97375.50;5073195;28;20211;-72
2022/12/23 07:51:03;;;;;;;2.10;2.00;;;;;;;10.18;100.00;97377.72;5073419;28;20239;-72
2022/12/23 07:53:30;;;;;;;3.30;2.20;;;;;;;10.19;100.00;97387.28;5073432;28;20204;-72
2022/12/23 07:55:57;;;;;;;2.70;2.23;;;;;;;10.22;100.00;97386.81;5073103;28;20208;-72
2022/12/23 07:58:23;;;;;;;3.83;1.97;;;;;;;10.18;100.00;97389.13;5073333;28;20208;-72
2022/12/23 08:00:50;;;;;;;4.17;2.50;;;;;;;10.19;100.00;97387.28;5073204;28;20586;-73
2022/12/23 08:03:16;;;;;;;4.03;2.77;;;;;;;10.15;100.00;97402.06;5072847;28;20208;-72
2022/12/23 08:05:42;;;;;;;3.40;2.30;;;;;;;10.12;100.00;97402.53;5072114;28;20573;-72
2022/12/23 08:08:09;;;;;;;5.67;2.40;;;;;;;10.12;100.00;97391.91;5073051;28;20568;-72
2022/12/23 08:10:35;;;;;;;3.80;2.63;;;;;;;10.15;100.00;97404.72;5073159;28;20581;-73
2022/12/23 08:13:02;;;;;;;3.53;2.23;;;;;;;10.14;100.00;97411.09;5073137;28;20552;-72
2022/12/23 08:15:28;;;;;;;3.60;2.10;;;;;;;10.11;100.00;97419.50;5074063;28;20215;-72
2022/12/23 08:17:55;;;;;;;4.33;2.10;;;;;;;10.15;100.00;97412.69;5073748;28;20208;-72
2022/12/23 08:20:22;;;;;;;3.50;2.20;;;;;;;10.16;100.00;97419.63;5073213;28;20259;-72
2022/12/23 08:22:48;;;;;;;2.37;2.20;;;;;;;10.19;100.00;97419.16;5072802;28;20321;-72
2022/12/23 08:25:14;;;;;;;1.67;1.10;;;;;;;10.26;100.00;97414.53;5073255;28;20201;-72
2022/12/23 08:27:41;;;;;;;1.03;0.70;;;;;;;10.32;100.00;97427.69;5073041;28;20287;-72
2022/12/23 08:30:08;;;;;;;1.60;0.87;;;;;;;10.37;100.00;97421.69;5073023;28;20239;-72
2022/12/23 08:32:34;;;;;;;0.80;0.57;;;;;;;10.41;100.00;97413.00;5073080;28;20232;-72
2022/12/23 08:35:01;;;;;;;0.40;0.40;;;;;;;10.48;100.00;97413.72;5072933;28;20218;-72
2022/12/23 08:37:27;;;;;;;2.10;0.60;;;;;;;10.59;100.00;97410.22;5073117;28;20214;-72
2022/12/23 08:39:53;;;;;;;1.90;0.50;;;;;;;10.59;100.00;97418.19;5074053;28;20210;-72
2022/12/23 08:42:20;;;;;;;1.67;0.53;;;;;;;10.60;100.00;97405.72;5073489;28;20233;-72
2022/12/23 08:44:46;;;;;;;0.60;0.50;;;;;;;10.62;100.00;97403.63;5076885;28;20231;-72
2022/12/23 08:47:12;;;;;;;1.13;0.47;;;;;;;10.57;100.00;97390.22;5077530;28;20230;-72
2022/12/23 08:49:39;;;;;;;1.13;0.60;;;;;;;10.52;100.00;97388.28;5076817;28;20233;-72
2022/12/23 08:52:05;;;;;;;1.00;0.50;;;;;;;10.47;100.00;97387.38;5076791;28;20595;-72
2022/12/23 08:54:32;;;;;;;2.83;1.80;;;;;;;10.45;100.00;97394.78;5076828;28;20209;-72
2022/12/23 08:56:58;;;;;;;6.50;3.43;;;;;;;10.47;100.00;97392.69;5076615;28;20287;-72
2022/12/23 08:59:24;;;;;;;9.13;4.93;;;;;;;10.50;100.00;97389.56;5076673;28;20215;-72
2022/12/23 09:01:51;;;;;;;5.10;2.20;;;;;;;10.48;100.00;97400.44;5076487;28;20234;-72
2022/12/23 09:04:17;;;;;;;4.03;1.70;;;;;;;10.47;100.00;97395.34;5076519;28;20211;-72
2022/12/23 09:06:44;;;;;;;1.60;0.90;;;;;;;10.47;100.00;97396.16;5076436;28;20208;-72
2022/12/23 09:09:13;;;;;;;1.50;0.90;;;;;;;10.49;100.00;97404.69;5076459;28;20209;-72
2022/12/23 09:11:39;;;;;;;3.53;1.07;;;;;;;10.49;100.00;97410.00;5076175;28;20261;-72
2022/12/23 09:14:07;;;;;;;1.07;1.00;;;;;;;10.55;100.00;97406.41;5076099;28;20205;-72
2022/12/23 09:16:33;;;;;;;1.23;0.80;;;;;;;10.59;100.00;97406.75;5075761;28;20262;-72
2022/12/23 09:19:00;;;;;;;2.57;1.13;;;;;;;10.64;100.00;97409.53;5076187;28;20205;-72
2022/12/23 09:21:26;;;;;;;1.80;0.87;;;;;;;10.69;100.00;97406.97;5075466;28;20232;-72
2022/12/23 09:23:53;;;;;;;1.60;1.10;;;;;;;10.77;100.00;97403.94;5075933;28;20194;-72
2022/12/23 09:26:22;;;;;;;1.30;1.00;;;;;;;10.82;100.00;97404.03;5076218;28;20205;-72
2022/12/23 09:28:49;;;;;;;2.73;1.30;;;;;;;10.88;100.00;97403.91;5076144;28;20658;-72
2022/12/23 09:31:16;;;;;;;3.03;1.43;;;;;;;10.87;100.00;97404.94;5075247;28;20229;-72
2022/12/23 09:33:42;;;;;;;1.30;1.17;;;;;;;10.84;100.00;97401.94;5075601;28;20202;-72
2022/12/23 09:36:09;;;;;;;3.57;1.10;;;;;;;10.79;100.00;97394.69;5075797;28;20204;-72
2022/12/23 09:38:35;;;;;;;1.37;1.27;;;;;;;10.81;100.00;97394.44;5075468;28;20571;-72
2022/12/23 09:41:12;;;;;;;2.10;1.17;;;;;;;10.82;100.00;97385.44;5075488;28;20222;-72
2022/12/23 09:43:58;;;;;;;1.60;1.40;;;;;;;10.84;100.00;97386.00;5073981;28;20191;-72
2022/12/23 09:46:28;;;;;;;2.60;1.40;;;;;;;10.87;100.00;97377.56;5075390;28;20194;-72
2022/12/23 09:49:03;;;;;;;3.00;1.57;;;;;;;10.92;100.00;97361.69;5075634;28;20189;-72
2022/12/23 09:51:31;;;;;;;3.47;1.60;;;;;;;10.97;100.00;97369.75;5075112;28;20228;-72
2022/12/23 09:54:08;;;;;;;4.07;1.73;;;;;;;10.95;100.00;97366.53;5074849;28;20206;-72
2022/12/23 09:56:39;;;;;;;3.63;2.20;;;;;;;10.94;100.00;97375.53;5074238;28;20201;-72
2022/12/23 09:59:18;;;;;;;1.90;1.60;;;;;;;10.98;100.00;97372.19;5075461;28;20190;-72
2022/12/23 10:01:56;;;;;;;5.63;1.70;;;;;;;10.98;100.00;97381.22;5074087;28;20220;-72
2022/12/23 10:04:22;;;;;;;2.27;1.70;;;;;;;11.01;100.00;97376.22;5075543;28;20536;-72
2022/12/23 10:07:09;;;;;;;2.40;1.60;;;;;;;11.03;100.00;97358.97;5075271;28;20207;-72
2022/12/23 10:09:43;;;;;;;4.17;1.50;;;;;;;11.04;100.00;97359.81;5074082;28;20209;-72
2022/12/23 10:12:20;;;;;;;4.20;1.40;;;;;;;11.08;100.00;97356.41;5075040;28;20237;-72
2022/12/23 10:14:50;;;;;;;1.93;1.73;;;;;;;11.00;100.00;97353.34;5074968;28;20196;-72
2022/12/23 10:17:27;;;;;;;1.60;1.33;;;;;;;10.97;100.00;97353.81;5075783;28;20197;-72
2022/12/23 10:19:59;;;;;;;3.63;1.73;;;;;;;11.05;100.00;97348.91;5075744;28;20186;-72
2022/12/23 10:22:41;;;;;;;2.17;1.20;;;;;;;11.12;100.00;97359.38;5073569;28;20720;-72
2022/12/23 10:25:36;;;;;;;3.07;1.23;;;;;;;11.14;100.00;97354.66;5074879;28;20190;-71
2022/12/23 10:28:03;;;;;;;2.17;1.40;;;;;;;11.16;100.00;97352.53;5073694;28;20196;-72
2022/12/23 10:30:34;;;;;;;1.40;1.30;;;;;;;11.16;100.00;97347.22;5074635;28;20228;-72
2022/12/23 10:33:08;;;;;;;2.97;1.40;;;;;;;11.17;100.00;97343.50;5074819;28;20196;-72
2022/12/23 10:36:03;;;;;;;2.20;1.30;;;;;;;11.17;100.00;97348.84;5074561;28;20202;-72
2022/12/23 10:38:44;;;;;;;1.50;1.17;;;;;;;11.22;100.00;97340.97;5074540;28;20189;-72
2022/12/23 10:41:24;;;;;;;1.90;1.27;;;;;;;11.23;100.00;97338.03;5074886;28;20705;-72
2022/12/23 10:44:16;;;;;;;1.40;1.30;;;;;;;11.24;100.00;97338.88;5073096;28;20634;-72
2022/12/23 10:46:53;;;;;;;1.60;1.50;;;;;;;11.25;100.00;97332.50;5074614;28;20198;-72
2022/12/23 10:49:38;;;;;;;1.67;1.20;;;;;;;11.30;100.00;97316.59;5073277;28;20203;-72
2022/12/23 10:52:16;;;;;;;3.37;1.20;;;;;;;11.39;100.00;97319.69;5074043;28;20706;-72
2022/12/23 10:54:44;;;;;;;2.20;1.40;;;;;;;11.38;100.00;97318.06;5074533;28;20195;-72
2022/12/23 10:57:14;;;;;;;1.20;1.10;;;;;;;11.39;100.00;97303.72;5073981;28;20658;-72
2022/12/23 10:59:41;;;;;;;1.83;1.20;;;;;;;11.41;100.00;97293.63;5073743;28;20668;-72
2022/12/23 11:02:13;;;;;;;3.53;1.63;;;;;;;11.36;100.00;97305.03;5073821;28;20228;-72
2022/12/23 11:04:47;;;;;;;5.17;2.43;;;;;;;11.33;100.00;97305.50;5073641;28;20215;-72
2022/12/23 11:07:24;;;;;;;3.90;1.70;;;;;;;11.27;100.00;97297.66;5073934;28;20214;-72
2022/12/23 11:10:17;;;;;;;4.47;1.70;;;;;;;11.24;100.00;97296.28;5074130;28;20196;-72
2022/12/23 11:12:47;;;;;;;1.43;1.33;;;;;;;11.34;100.00;97295.66;5074062;28;20339;-72
2022/12/23 11:15:32;;;;;;;1.53;1.43;;;;;;;11.28;100.00;97298.22;5074693;28;20216;-72
2022/12/23 11:18:01;;;;;;;2.37;1.30;;;;;;;11.27;100.00;97290.50;5074074;28;20196;-72
2022/12/23 11:20:28;;;;;;;1.77;1.40;;;;;;;11.27;100.00;97287.03;5073585;28;20686;-72
2022/12/23 11:22:58;;;;;;;1.93;1.30;;;;;;;11.35;100.00;97286.63;5073157;28;20216;-72
2022/12/23 11:25:43;;;;;;;1.50;1.40;;;;;;;11.35;100.00;97278.66;5073777;28;20290;-72
2022/12/23 11:28:21;;;;;;;2.07;1.30;;;;;;;11.30;100.00;97274.03;5073683;28;20200;-72
2022/12/23 11:30:53;;;;;;;2.97;1.50;;;;;;;11.42;100.00;97271.28;5073502;28;20241;-72
2022/12/23 11:33:25;;;;;;;2.00;1.43;;;;;;;11.37;100.00;97263.22;5074337;28;20196;-72
2022/12/23 11:36:06;;;;;;;2.30;1.40;;;;;;;11.39;100.00;97256.63;5073588;28;20199;-72
2022/12/23 11:38:35;;;;;;;3.83;1.70;;;;;;;11.32;100.00;97250.66;5072045;28;20564;-72
2022/12/23 11:41:04;;;;;;;2.47;1.40;;;;;;;11.43;100.00;97241.78;5072113;28;20231;-72
2022/12/23 11:43:32;;;;;;;3.03;1.70;;;;;;;11.37;100.00;97244.59;5071965;28;20542;-72
2022/12/23 11:46:31;;;;;;;2.93;1.50;;;;;;;11.42;100.00;97245.50;5072090;28;20227;-69
2022/12/23 11:49:21;;;;;;;3.37;2.13;;;;;;;11.32;100.00;97243.47;5073050;28;20200;-72
2022/12/23 11:52:00;;;;;;;2.83;1.63;;;;;;;11.36;100.00;97246.47;5073210;28;20629;-72
2022/12/23 11:54:27;;;;;;;1.73;1.63;;;;;;;11.37;100.00;97242.75;5073308;28;20262;-72
2022/12/23 11:56:55;;;;;;;3.27;1.90;;;;;;;11.38;100.00;97240.88;5073077;28;20569;-72
2022/12/23 11:59:38;;;;;;;2.83;1.50;;;;;;;11.52;100.00;97236.88;5072923;28;20223;-72
2022/12/23 12:02:23;;;;;;;2.80;1.17;;;;;;;11.60;100.00;97226.63;5073365;28;20233;-72
2022/12/23 12:04:59;;;;;;;1.47;0.80;;;;;;;11.65;100.00;97217.88;5073333;28;20202;-72
2022/12/23 12:07:26;;;;;;;1.53;0.77;;;;;;;11.73;100.00;97212.16;5055584;28;20679;-72
2022/12/23 12:09:57;;;;;;;0.87;0.63;;;;;;;11.76;100.00;97212.44;5072830;28;20572;-72